createdAt,value
2023-04-15T00:00:22.922Z,75.69
2023-04-15T00:03:30.460Z,75.63
2023-04-15T00:06:38.386Z,75.64
2023-04-15T00:09:44.341Z,75.66
2023-04-15T00:12:51.066Z,75.55
2023-04-15T00:15:57.808Z,75.45
2023-04-15T00:19:04.829Z,75.41
2023-04-15T00:22:11.365Z,75.34
2023-04-15T00:25:18.380Z,75.39
2023-04-15T00:28:24.893Z,75.34
2023-04-15T00:31:30.796Z,75.33
2023-04-15T00:34:36.174Z,75.30
2023-04-15T00:37:45.942Z,75.30
2023-04-15T00:40:51.581Z,75.39
2023-04-15T00:43:57.719Z,75.40
2023-04-15T00:47:04.944Z,75.38
2023-04-15T00:50:11.424Z,75.38
2023-04-15T00:53:18.229Z,75.42
2023-04-15T00:56:24.738Z,75.52
2023-04-15T00:59:31.050Z,75.56
2023-04-15T01:02:37.850Z,75.44
2023-04-15T01:05:43.619Z,75.41
2023-04-15T01:08:50.408Z,75.32
2023-04-15T01:11:56.630Z,75.39
2023-04-15T01:15:04.821Z,75.40
2023-04-15T01:18:12.932Z,75.40
2023-04-15T01:21:20.151Z,75.45
2023-04-15T01:24:26.510Z,75.46
2023-04-15T01:27:33.592Z,75.39
2023-04-15T01:30:39.582Z,75.31
2023-04-15T01:33:47.392Z,75.27
2023-04-15T01:36:54.242Z,75.20
2023-04-15T01:40:00.324Z,74.99
2023-04-15T01:43:08.380Z,75.05
2023-04-15T01:46:14.434Z,75.10
2023-04-15T01:49:21.224Z,75.08
2023-04-15T01:52:27.065Z,75.07
2023-04-15T01:55:32.736Z,75.08
2023-04-15T01:58:39.022Z,75.07
2023-04-15T02:01:46.454Z,75.00
2023-04-15T02:04:51.985Z,74.81
2023-04-15T02:08:00.590Z,74.86
2023-04-15T02:11:09.436Z,74.96
2023-04-15T02:14:16.537Z,74.96
2023-04-15T02:17:22.990Z,75.06
2023-04-15T02:20:30.396Z,75.09
2023-04-15T02:23:36.731Z,75.12
2023-04-15T02:26:45.350Z,75.12
2023-04-15T02:29:53.785Z,75.03
2023-04-15T02:33:00.516Z,74.98
2023-04-15T02:36:08.646Z,74.97
2023-04-15T02:39:16.925Z,74.96
2023-04-15T02:42:22.898Z,74.88
2023-04-15T02:45:33.109Z,74.96
2023-04-15T02:48:40.007Z,75.02
2023-04-15T02:51:46.118Z,75.02
2023-04-15T02:54:52.394Z,74.99
2023-04-15T02:57:58.534Z,75.00
2023-04-15T03:01:04.986Z,74.94
2023-04-15T03:04:10.329Z,74.93
2023-04-15T03:07:17.791Z,74.88
2023-04-15T03:10:25.317Z,74.91
2023-04-15T03:13:31.628Z,74.89
2023-04-15T03:16:40.628Z,74.88
2023-04-15T03:19:49.080Z,74.88
2023-04-15T03:22:55.252Z,74.88
2023-04-15T03:26:06.537Z,74.85
2023-04-15T03:29:12.205Z,74.79
2023-04-15T03:32:22.105Z,74.77
2023-04-15T03:35:28.708Z,74.80
2023-04-15T03:38:36.873Z,74.74
2023-04-15T03:41:42.964Z,74.72
2023-04-15T03:44:50.800Z,74.72
2023-04-15T03:48:07.295Z,74.61
2023-04-15T03:51:07.701Z,74.61
2023-04-15T03:54:15.330Z,74.59
2023-04-15T03:57:22.042Z,74.67
2023-04-15T04:00:28.791Z,74.69
2023-04-15T04:03:36.226Z,74.68
2023-04-15T04:06:42.437Z,74.59
2023-04-15T04:09:49.211Z,74.56
2023-04-15T04:12:57.224Z,74.48
2023-04-15T04:16:03.682Z,74.16
2023-04-15T04:19:10.834Z,74.06
2023-04-15T04:22:17.651Z,74.33
2023-04-15T04:25:25.284Z,74.50
2023-04-15T04:28:31.568Z,74.58
2023-04-15T04:31:36.878Z,74.58
2023-04-15T04:34:44.178Z,74.60
2023-04-15T04:37:50.276Z,74.36
2023-04-15T04:40:56.044Z,74.35
2023-04-15T04:44:02.545Z,74.44
2023-04-15T04:47:07.951Z,74.54
2023-04-15T04:50:13.592Z,74.46
2023-04-15T04:53:19.837Z,74.23
2023-04-15T04:56:27.705Z,74.26
2023-04-15T04:59:34.269Z,74.23
2023-04-15T05:02:39.859Z,74.20
2023-04-15T05:05:48.672Z,74.18
2023-04-15T05:08:57.653Z,74.02
2023-04-15T05:12:03.473Z,74.02
2023-04-15T05:15:10.275Z,74.03
2023-04-15T05:18:15.662Z,73.98
2023-04-15T05:21:23.028Z,73.93
2023-04-15T05:24:29.915Z,73.85
2023-04-15T05:27:36.851Z,73.74
2023-04-15T05:30:42.480Z,73.80
2023-04-15T05:33:48.041Z,73.77
2023-04-15T05:36:54.322Z,73.50
2023-04-15T05:40:00.424Z,73.53
2023-04-15T05:43:06.484Z,73.49
2023-04-15T05:46:12.532Z,73.37
2023-04-15T05:49:18.728Z,73.25
2023-04-15T05:52:26.041Z,73.14
2023-04-15T05:55:32.121Z,73.11
2023-04-15T05:58:40.296Z,73.14
2023-04-15T06:01:51.361Z,72.99
2023-04-15T06:05:00.368Z,72.84
2023-04-15T06:08:07.536Z,72.59
2023-04-15T06:11:14.738Z,72.70
2023-04-15T06:14:22.869Z,72.76
2023-04-15T06:17:29.486Z,72.87
2023-04-15T06:20:35.956Z,72.86
2023-04-15T06:23:44.529Z,72.73
2023-04-15T06:26:51.319Z,72.65
2023-04-15T06:29:58.446Z,72.58
2023-04-15T06:33:05.533Z,72.62
2023-04-15T06:36:11.678Z,72.63
2023-04-15T06:39:17.852Z,72.53
2023-04-15T06:42:24.321Z,72.58
2023-04-15T06:45:32.408Z,72.32
2023-04-15T06:48:37.579Z,72.29
2023-04-15T06:51:42.419Z,72.15
2023-04-15T06:54:51.852Z,72.28
2023-04-15T06:57:58.240Z,72.19
2023-04-15T07:01:04.518Z,72.28
2023-04-15T07:04:10.933Z,72.17
2023-04-15T07:07:11.223Z,72.25
2023-04-15T07:09:58.365Z,72.52
2023-04-15T07:12:51.815Z,72.55
2023-04-15T07:15:46.206Z,72.21
2023-04-15T07:18:53.041Z,72.21
2023-04-15T07:21:59.575Z,72.16
2023-04-15T07:25:05.168Z,72.05
2023-04-15T07:28:10.228Z,72.02
2023-04-15T07:31:19.615Z,72.03
2023-04-15T07:34:28.645Z,71.92
2023-04-15T07:37:36.895Z,71.83
2023-04-15T07:40:42.031Z,71.92
2023-04-15T07:43:48.730Z,71.80
2023-04-15T07:46:56.930Z,71.67
2023-04-15T07:50:04.911Z,71.81
2023-04-15T07:53:10.880Z,71.91
2023-04-15T07:56:17.117Z,71.66
2023-04-15T07:59:24.357Z,71.77
2023-04-15T08:02:32.069Z,71.82
2023-04-15T08:05:38.243Z,71.87
2023-04-15T08:08:44.807Z,71.65
2023-04-15T08:11:51.637Z,71.28
2023-04-15T08:14:58.619Z,71.36
2023-04-15T08:18:08.489Z,71.59
2023-04-15T08:21:14.993Z,71.66
2023-04-15T08:24:21.168Z,71.28
2023-04-15T08:27:28.799Z,71.18
2023-04-15T08:30:34.700Z,71.37
2023-04-15T08:33:39.968Z,71.48
2023-04-15T08:36:47.245Z,71.53
2023-04-15T08:39:53.828Z,71.60
2023-04-15T08:43:01.541Z,71.66
2023-04-15T08:46:08.999Z,71.62
2023-04-15T08:49:20.193Z,71.37
2023-04-15T08:52:26.482Z,71.36
2023-04-15T08:55:32.964Z,71.28
2023-04-15T08:58:39.333Z,71.04
2023-04-15T09:01:45.036Z,71.12
2023-04-15T09:04:52.578Z,71.26
2023-04-15T09:07:59.563Z,71.19
2023-04-15T09:11:05.909Z,71.15
2023-04-15T09:14:13.619Z,71.01
2023-04-15T09:17:20.755Z,70.93
2023-04-15T09:20:28.273Z,70.77
2023-04-15T09:23:34.567Z,70.62
2023-04-15T09:26:51.163Z,70.73
2023-04-15T09:29:56.989Z,70.75
2023-04-15T09:33:20.206Z,70.85
2023-04-15T09:36:28.232Z,70.85
2023-04-15T09:39:34.665Z,70.48
2023-04-15T09:42:41.432Z,70.53
2023-04-15T09:45:47.440Z,70.70
2023-04-15T09:48:55.233Z,70.54
2023-04-15T09:52:05.660Z,70.39
2023-04-15T09:55:13.423Z,70.45
2023-04-15T09:58:19.684Z,70.35
2023-04-15T10:01:25.137Z,70.30
2023-04-15T10:04:31.335Z,70.22
2023-04-15T10:07:36.294Z,70.32
2023-04-15T10:10:41.368Z,70.45
2023-04-15T10:13:48.523Z,70.35
2023-04-15T10:16:56.513Z,70.01
2023-04-15T10:20:04.173Z,69.92
2023-04-15T10:23:12.845Z,69.93
2023-04-15T10:26:21.448Z,70.00
2023-04-15T10:29:27.821Z,69.91
2023-04-15T10:32:35.021Z,69.85
2023-04-15T10:35:41.174Z,69.80
2023-04-15T10:38:58.292Z,69.90
2023-04-15T10:42:18.548Z,70.02
2023-04-15T10:45:28.378Z,69.99
2023-04-15T10:48:35.386Z,70.18
2023-04-15T10:51:48.390Z,70.26
2023-04-15T10:54:54.758Z,70.17
2023-04-15T10:58:02.428Z,70.09
2023-04-15T11:01:10.576Z,69.86
2023-04-15T11:04:16.666Z,69.70
2023-04-15T11:07:25.665Z,69.82
2023-04-15T11:10:49.737Z,69.85
2023-04-15T11:14:03.841Z,69.88
2023-04-15T11:17:10.462Z,69.57
2023-04-15T11:20:16.741Z,69.63
2023-04-15T11:23:24.357Z,69.72
2023-04-15T11:26:30.655Z,69.62
2023-04-15T11:29:35.660Z,69.48
2023-04-15T11:32:42.162Z,69.40
2023-04-15T11:35:48.320Z,69.47
2023-04-15T11:38:59.598Z,69.56
2023-04-15T11:42:05.818Z,69.55
2023-04-15T11:45:31.180Z,69.23
2023-04-15T11:48:40.829Z,69.01
2023-04-15T11:51:48.931Z,68.95
2023-04-15T11:54:56.663Z,69.05
2023-04-15T11:58:01.971Z,69.35
2023-04-15T12:01:14.103Z,69.30
2023-04-15T12:04:32.397Z,69.25
2023-04-15T12:07:38.890Z,69.18
2023-04-15T12:10:47.037Z,69.23
2023-04-15T12:13:53.628Z,69.23
2023-04-15T12:17:04.272Z,69.24
2023-04-15T12:20:11.237Z,69.25
2023-04-15T12:23:22.806Z,69.05
2023-04-15T12:26:28.547Z,69.02
2023-04-15T12:29:34.271Z,69.05
2023-04-15T12:32:42.202Z,68.99
2023-04-15T12:35:48.164Z,69.11
2023-04-15T12:38:54.409Z,69.16
2023-04-15T12:41:59.628Z,69.13
2023-04-15T12:45:05.316Z,69.14
2023-04-15T12:48:10.576Z,69.14
2023-04-15T12:51:15.446Z,68.99
2023-04-15T12:54:21.202Z,69.04
2023-04-15T12:57:27.646Z,69.07
2023-04-15T13:00:32.940Z,69.00
2023-04-15T13:03:40.473Z,68.95
2023-04-15T13:06:46.436Z,69.04
2023-04-15T13:09:54.731Z,68.93
2023-04-15T13:13:02.077Z,68.93
2023-04-15T13:16:09.501Z,68.95
2023-04-15T13:19:15.358Z,68.90
2023-04-15T13:22:24.774Z,68.75
2023-04-15T13:25:31.263Z,68.81
2023-04-15T13:28:37.996Z,68.83
2023-04-15T13:31:43.042Z,68.70
2023-04-15T13:34:49.852Z,68.85
2023-04-15T13:37:55.527Z,68.80
2023-04-15T13:41:03.576Z,68.71
2023-04-15T13:44:09.318Z,68.61
2023-04-15T13:47:14.947Z,68.46
2023-04-15T13:50:23.050Z,68.51
2023-04-15T13:53:38.415Z,68.50
2023-04-15T13:56:35.958Z,68.34
2023-04-15T13:59:41.690Z,68.29
2023-04-15T14:02:47.107Z,68.30
2023-04-15T14:05:53.421Z,68.28
2023-04-15T14:08:58.924Z,68.33
2023-04-15T14:12:06.813Z,68.26
2023-04-15T14:15:13.368Z,68.05
2023-04-15T14:18:19.852Z,68.25
2023-04-15T14:21:27.632Z,68.45
2023-04-15T14:24:36.105Z,68.42
2023-04-15T14:27:41.760Z,68.31
2023-04-15T14:30:48.048Z,68.23
2023-04-15T14:33:53.014Z,68.30
2023-04-15T14:37:00.895Z,68.28
2023-04-15T14:40:07.576Z,68.43
2023-04-15T14:43:12.832Z,68.50
2023-04-15T14:46:18.835Z,68.36
2023-04-15T14:49:25.860Z,68.37
2023-04-15T14:52:32.876Z,68.37
2023-04-15T14:55:39.127Z,68.15
2023-04-15T14:58:47.248Z,68.14
2023-04-15T15:01:53.798Z,68.16
2023-04-15T15:05:00.476Z,68.24
2023-04-15T15:08:09.704Z,68.14
2023-04-15T15:11:18.304Z,68.02
2023-04-15T15:14:25.780Z,67.90
2023-04-15T15:17:30.737Z,67.88
2023-04-15T15:20:37.015Z,67.98
2023-04-15T15:23:41.947Z,68.07
2023-04-15T15:26:48.295Z,68.03
2023-04-15T15:29:55.024Z,67.96
2023-04-15T15:33:02.735Z,68.04
2023-04-15T15:36:09.402Z,67.94
2023-04-15T15:39:14.917Z,67.97
2023-04-15T15:42:22.670Z,68.16
2023-04-15T15:45:30.210Z,68.26
2023-04-15T15:48:37.923Z,68.39
2023-04-15T15:51:43.599Z,68.29
2023-04-15T15:54:49.998Z,68.19
2023-04-15T15:57:57.506Z,68.11
2023-04-15T16:01:04.058Z,68.12
2023-04-15T16:04:10.277Z,68.28
2023-04-15T16:07:16.837Z,68.37
2023-04-15T16:10:24.397Z,68.28
2023-04-15T16:13:30.838Z,68.27
2023-04-15T16:16:38.445Z,68.37
2023-04-15T16:19:58.181Z,68.50
2023-04-15T16:22:53.098Z,68.50
2023-04-15T16:26:00.613Z,68.58
2023-04-15T16:29:07.406Z,68.52
2023-04-15T16:32:13.747Z,68.59
2023-04-15T16:35:23.135Z,68.58
2023-04-15T16:38:29.729Z,68.63
2023-04-15T16:41:36.217Z,68.67
2023-04-15T16:44:41.312Z,68.69
2023-04-15T16:47:46.644Z,68.73
2023-04-15T16:50:52.163Z,68.67
2023-04-15T16:53:59.388Z,68.62
2023-04-15T16:57:06.051Z,68.71
2023-04-15T17:00:11.112Z,68.68
2023-04-15T17:03:17.657Z,68.68
2023-04-15T17:06:24.919Z,68.72
2023-04-15T17:09:32.124Z,68.82
2023-04-15T17:12:40.096Z,68.79
2023-04-15T17:15:48.354Z,68.79
2023-04-15T17:18:55.634Z,68.85
2023-04-15T17:22:01.474Z,68.85
2023-04-15T17:25:08.049Z,68.81
2023-04-15T17:28:14.290Z,68.84
2023-04-15T17:31:19.601Z,68.77
2023-04-15T17:34:25.044Z,68.71
2023-04-15T17:37:34.486Z,68.71
2023-04-15T17:40:40.095Z,68.73
2023-04-15T17:43:45.887Z,68.67
2023-04-15T17:46:51.486Z,68.64
2023-04-15T17:49:58.332Z,68.62
2023-04-15T17:53:08.983Z,68.64
2023-04-15T17:56:15.438Z,68.64
2023-04-15T17:59:23.251Z,68.81
2023-04-15T18:02:30.665Z,68.81
2023-04-15T18:05:37.815Z,68.81
2023-04-15T18:08:44.118Z,68.77
2023-04-15T18:11:52.358Z,68.65
2023-04-15T18:14:58.403Z,68.55
2023-04-15T18:18:04.270Z,68.49
2023-04-15T18:21:11.595Z,68.57
2023-04-15T18:24:19.228Z,68.66
2023-04-15T18:27:25.895Z,68.63
2023-04-15T18:30:31.247Z,68.71
2023-04-15T18:33:36.177Z,68.77
2023-04-15T18:36:41.329Z,68.86
2023-04-15T18:39:47.378Z,68.84
2023-04-15T18:42:53.989Z,68.80
2023-04-15T18:46:01.773Z,68.80
2023-04-15T18:49:08.076Z,68.77
2023-04-15T18:52:15.390Z,68.78
2023-04-15T18:55:21.507Z,68.73
2023-04-15T18:58:26.927Z,68.82
2023-04-15T19:01:33.164Z,68.77
2023-04-15T19:04:39.658Z,68.83
2023-04-15T19:07:46.343Z,68.83
2023-04-15T19:10:53.744Z,68.86
2023-04-15T19:14:01.952Z,68.96
2023-04-15T19:17:06.602Z,68.98
2023-04-15T19:20:12.882Z,68.93
2023-04-15T19:23:18.479Z,68.98
2023-04-15T19:26:24.165Z,68.99
2023-04-15T19:29:30.652Z,68.93
2023-04-15T19:32:30.063Z,68.91
2023-04-15T19:35:18.099Z,68.94
2023-04-15T19:38:12.785Z,68.93
2023-04-15T19:41:18.518Z,68.86
2023-04-15T19:44:24.427Z,68.99
2023-04-15T19:47:30.928Z,68.96
2023-04-15T19:50:39.034Z,69.01
2023-04-15T19:53:45.173Z,68.96
2023-04-15T19:56:50.550Z,68.99
2023-04-15T19:59:57.549Z,68.95
2023-04-15T20:03:04.395Z,68.96
2023-04-15T20:06:11.856Z,68.90
2023-04-15T20:09:18.354Z,68.97
2023-04-15T20:12:51.476Z,69.04
2023-04-15T20:15:37.744Z,69.08
2023-04-15T20:18:44.906Z,69.17
2023-04-15T20:21:52.812Z,69.10
2023-04-15T20:24:58.941Z,69.05
2023-04-15T20:28:05.783Z,69.05
2023-04-15T20:31:13.519Z,69.06
2023-04-15T20:34:20.832Z,69.07
2023-04-15T20:37:27.341Z,69.05
2023-04-15T20:40:35.141Z,69.06
2023-04-15T20:43:42.243Z,69.09
2023-04-15T20:46:48.725Z,69.12
2023-04-15T20:49:58.379Z,69.11
2023-04-15T20:53:03.469Z,69.11
2023-04-15T20:56:10.399Z,69.07
2023-04-15T20:59:15.969Z,69.09
2023-04-15T21:02:22.098Z,69.14
2023-04-15T21:05:29.853Z,69.08
2023-04-15T21:08:36.605Z,69.04
2023-04-15T21:11:53.194Z,68.96
2023-04-15T21:14:44.433Z,69.05
2023-04-15T21:17:49.550Z,69.00
2023-04-15T21:20:55.734Z,68.99
2023-04-15T21:24:05.015Z,69.04
2023-04-15T21:27:11.207Z,69.00
2023-04-15T21:30:16.802Z,69.04
2023-04-15T21:33:22.684Z,69.08
2023-04-15T21:36:29.331Z,69.04
2023-04-15T21:39:35.089Z,69.02
2023-04-15T21:42:42.105Z,69.05
2023-04-15T21:46:21.461Z,69.11
2023-04-15T21:48:57.539Z,69.12
2023-04-15T21:52:04.447Z,69.13
2023-04-15T21:55:10.608Z,69.19
2023-04-15T21:58:16.522Z,69.18
2023-04-15T22:01:23.881Z,69.13
2023-04-15T22:04:30.113Z,69.18
2023-04-15T22:07:38.076Z,69.20
2023-04-15T22:10:46.481Z,69.22
2023-04-15T22:13:51.518Z,69.22
2023-04-15T22:16:59.239Z,69.26
2023-04-15T22:20:05.236Z,69.31
2023-04-15T22:23:12.758Z,69.34
2023-04-15T22:26:18.856Z,69.33
2023-04-15T22:29:23.887Z,69.30
2023-04-15T22:32:30.351Z,69.29
2023-04-15T22:35:35.900Z,69.31
2023-04-15T22:38:42.263Z,69.32
2023-04-15T22:41:48.163Z,69.32
2023-04-15T22:44:53.269Z,69.35
2023-04-15T22:47:59.736Z,69.41
2023-04-15T22:51:06.384Z,69.47
2023-04-15T22:54:11.710Z,69.43
2023-04-15T22:57:18.321Z,69.47
2023-04-15T23:00:25.282Z,69.50
2023-04-15T23:03:31.185Z,69.42
2023-04-15T23:06:40.769Z,69.44
2023-04-15T23:09:49.260Z,69.51
2023-04-15T23:12:56.972Z,69.50
2023-04-15T23:16:03.791Z,69.57
2023-04-15T23:19:09.967Z,69.56
2023-04-15T23:22:17.066Z,69.60
2023-04-15T23:25:24.243Z,69.60
2023-04-15T23:28:29.929Z,69.59
2023-04-15T23:31:38.273Z,69.57
2023-04-15T23:34:43.517Z,69.57
2023-04-15T23:37:49.826Z,69.58
2023-04-15T23:40:56.874Z,69.59
2023-04-15T23:44:02.683Z,69.63
2023-04-15T23:47:10.118Z,69.60
2023-04-15T23:50:15.170Z,69.72
2023-04-15T23:53:21.737Z,69.81
2023-04-15T23:56:28.965Z,69.71
2023-04-15T23:59:34.654Z,69.69
